Guilford, Kansas
Current Conditions -  °F | °C
As of 4:52 PM on Wednesday 22 Oct 2014 (Local Time) from KCNU Reporting Station
Clear Clear  
Wind Chill: 76°   Ceiling: Unl
Heat Index: 76°   Visibility: 10mi
Dew Point: 57°   Wind: 12mph
Humidity: 52%   Direction: 170°S
Pressure: 30.09"   Gusts: NA
Location:  37.5152°N, 95.6341°W
Report Text: KCNU 222152Z AUTO 17010KT 10SM CLR 24/14 A3009 RMK AO2 SLP180 T02440139
Loading
Personal Weather Stations






























Interactive Weather Map
Tropical Storm Tracking
New forecast layout! Learn more

10-Day Weather Forecast

Advertisements
Track Severe Weather on mobile